Time;durP1;ratioP1;P1;durP2;ratioP2;P2;SDS_P1;SDS_P2;PMS_P1;PMS_P2;Temp;Humidity;BMP_temperature;BMP_pressure;BME280_temperature;BME280_humidity;BME280_pressure;Samples;Min_cycle;Max_cycle;Signal;HPM_P1;HPM_P2
2022/06/02 00:01:25;;;;;;;5.78;2.20;;;;;;;20.72;64.25;100089.78;5073163;28;20091;-71
2022/06/02 00:04:04;;;;;;;10.27;2.28;;;;;;;20.67;64.16;100051.13;5068360;28;20128;-70
2022/06/02 00:06:40;;;;;;;3.65;1.92;;;;;;;20.90;63.50;100078.97;5081807;28;20092;-70
2022/06/02 00:09:22;;;;;;;6.22;1.38;;;;;;;20.78;63.46;100085.50;5072859;28;20127;-70
2022/06/02 00:12:00;;;;;;;9.20;2.35;;;;;;;20.67;63.57;100075.84;5079733;28;20111;-70
2022/06/02 00:14:56;;;;;;;9.98;2.45;;;;;;;20.87;63.55;100069.16;5073154;28;20452;-70
2022/06/02 00:17:26;;;;;;;7.10;1.55;;;;;;;20.86;63.43;100072.34;5071122;28;20072;-70
2022/06/02 00:20:08;;;;;;;9.32;2.50;;;;;;;20.68;63.19;100055.63;5086642;28;20142;-69
2022/06/02 00:23:22;;;;;;;6.78;2.05;;;;;;;20.51;62.96;100059.59;5084733;28;20052;-71
2022/06/02 00:26:27;;;;;;;8.65;2.72;;;;;;;20.49;63.08;100067.59;5057974;28;20135;-72
2022/06/02 00:29:20;;;;;;;6.63;2.45;;;;;;;20.30;62.79;100061.75;5072905;28;20072;-73
2022/06/02 00:32:16;;;;;;;9.98;2.47;;;;;;;20.14;63.32;100047.50;5077542;28;20503;-72
2022/06/02 00:35:10;;;;;;;4.65;1.77;;;;;;;20.23;62.82;100036.00;5050411;28;20072;-72
2022/06/02 00:38:01;;;;;;;9.40;2.42;;;;;;;20.30;63.02;100048.38;5087542;28;20122;-70
2022/06/02 00:40:31;;;;;;;8.45;2.28;;;;;;;20.30;62.63;100051.22;5075946;28;20076;-69
2022/06/02 00:43:20;;;;;;;7.55;2.42;;;;;;;20.17;62.58;100037.44;5082944;28;20083;-70
2022/06/02 00:45:56;;;;;;;5.93;2.03;;;;;;;20.27;62.53;100032.13;5092930;28;20055;-69
2022/06/02 00:48:38;;;;;;;6.68;2.17;;;;;;;20.37;62.41;100047.78;5075098;28;20118;-70
2022/06/02 00:51:09;;;;;;;6.80;1.45;;;;;;;20.38;62.42;100029.59;5078739;28;20075;-71
2022/06/02 00:59:59;;;;;;;5.68;2.13;;;;;;;20.45;62.45;100007.13;5077928;28;20056;-70
2022/06/02 01:02:27;;;;;;;12.52;2.40;;;;;;;20.55;62.38;100014.31;5076155;28;20074;-69
2022/06/02 01:05:00;;;;;;;6.18;1.60;;;;;;;20.53;62.50;100025.19;5081165;28;20131;-68
2022/06/02 01:07:50;;;;;;;7.35;1.73;;;;;;;20.43;62.26;100031.34;5077601;28;20076;-68
2022/06/02 01:10:44;;;;;;;9.23;1.95;;;;;;;20.25;61.99;100011.78;5079435;28;20127;-70
2022/06/02 01:13:42;;;;;;;9.60;1.63;;;;;;;20.24;62.16;100030.00;5085081;28;20080;-70
2022/06/02 01:16:40;;;;;;;9.75;2.60;;;;;;;20.31;62.31;100040.72;5075050;28;20131;-69
2022/06/02 01:19:19;;;;;;;5.53;1.52;;;;;;;20.38;62.08;100034.44;5070850;28;20135;-69
2022/06/02 01:22:22;;;;;;;6.97;1.95;;;;;;;20.51;61.88;100031.25;5074993;28;20127;-70
2022/06/02 01:25:27;;;;;;;7.30;2.53;;;;;;;20.71;62.19;100037.88;5091734;28;20107;-72
2022/06/02 01:28:24;;;;;;;4.93;1.63;;;;;;;20.98;62.20;100036.19;5092192;28;20048;-70
2022/06/02 01:31:00;;;;;;;5.03;1.20;;;;;;;21.23;61.85;100033.19;5075697;28;20094;-71
2022/06/02 01:33:29;;;;;;;4.13;1.55;;;;;;;21.22;61.63;100028.72;5075299;28;20225;-72
2022/06/02 01:36:06;;;;;;;13.05;1.98;;;;;;;21.27;61.20;100034.16;5082081;28;20048;-72
2022/06/02 01:38:57;;;;;;;9.25;2.40;;;;;;;21.28;60.60;100030.09;5091809;28;20079;-71
2022/06/02 01:41:30;;;;;;;3.30;1.52;;;;;;;21.10;60.48;100040.19;5079930;28;20049;-72
2022/06/02 01:44:22;;;;;;;9.55;2.20;;;;;;;20.99;60.33;100023.69;5076076;28;20498;-73
2022/06/02 01:46:49;;;;;;;6.70;1.70;;;;;;;20.82;59.95;100041.03;5079185;28;20135;-70
2022/06/02 01:49:28;;;;;;;10.80;2.13;;;;;;;20.82;60.35;100029.69;5075294;28;20057;-70
2022/06/02 01:52:22;;;;;;;6.45;1.30;;;;;;;21.04;60.86;100023.41;5074958;28;20087;-72
2022/06/02 01:55:04;;;;;;;8.63;1.90;;;;;;;21.23;60.03;100022.69;5076260;28;20135;-72
2022/06/02 01:57:52;;;;;;;7.20;1.58;;;;;;;21.06;59.85;100015.34;5087056;28;20485;-71
2022/06/02 02:00:23;;;;;;;2.55;1.17;;;;;;;20.67;59.36;99997.22;5074731;28;20088;-72
2022/06/02 02:03:18;;;;;;;5.45;1.33;;;;;;;20.40;59.60;99990.34;5082489;28;20078;-71
2022/06/02 02:06:06;;;;;;;5.00;1.38;;;;;;;20.20;59.88;99977.19;5074964;28;20075;-71
2022/06/02 02:08:42;;;;;;;2.15;1.70;;;;;;;20.29;60.19;100000.56;5074810;28;20470;-71
2022/06/02 02:11:21;;;;;;;6.63;1.70;;;;;;;20.29;59.90;100000.56;5089204;28;20131;-71
2022/06/02 02:14:16;;;;;;;5.43;1.67;;;;;;;20.41;59.78;100002.50;5088016;28;20123;-73
2022/06/02 02:17:11;;;;;;;3.67;1.40;;;;;;;20.09;59.88;99985.38;5075446;28;20162;-73
2022/06/02 02:20:06;;;;;;;6.50;5.40;;;;;;;20.12;59.92;99982.66;5074060;28;20088;-73
2022/06/02 02:22:45;;;;;;;6.13;3.67;;;;;;;19.88;60.18;99977.03;5073949;28;20123;-75
2022/06/02 02:25:15;;;;;;;8.85;2.65;;;;;;;19.95;60.75;100002.78;5074868;28;20107;-74
2022/06/02 02:28:05;;;;;;;7.30;2.45;;;;;;;19.87;60.82;99995.25;5079873;28;20086;-73
2022/06/02 02:30:44;;;;;;;10.63;2.47;;;;;;;20.02;61.45;99991.66;5076083;28;20084;-71
2022/06/02 02:33:23;;;;;;;14.27;2.80;;;;;;;19.93;60.64;99993.81;5085905;28;20067;-71
2022/06/02 02:36:08;;;;;;;3.30;1.50;;;;;;;19.86;60.78;100004.91;5074194;28;20372;-71
2022/06/02 02:38:48;;;;;;;9.70;1.67;;;;;;;19.63;60.71;99976.28;5073770;28;20065;-72
2022/06/02 02:41:38;;;;;;;10.48;1.98;;;;;;;19.80;61.06;99989.34;5076867;28;20093;-72
2022/06/02 02:44:06;;;;;;;6.72;2.33;;;;;;;19.70;61.13;99993.50;5089534;28;20480;-71
2022/06/02 02:46:49;;;;;;;7.85;2.03;;;;;;;19.48;61.14;99960.78;5089051;28;20131;-70
2022/06/02 02:49:39;;;;;;;2.28;1.45;;;;;;;19.51;61.58;99965.72;5077574;28;20131;-70
2022/06/02 02:52:25;;;;;;;;;;;;;;;19.56;61.40;99968.34;5074034;28;20090;-70
2022/06/02 02:55:27;;;;;;;3.45;1.73;;;;;;;19.81;61.83;99974.00;5079731;28;20007;-70
2022/06/02 02:58:31;;;;;;;7.63;1.83;;;;;;;19.81;61.39;99969.16;5087459;28;20084;-70
2022/06/02 03:01:05;;;;;;;4.72;1.38;;;;;;;19.61;61.21;99939.75;5079078;28;20130;-71
2022/06/02 03:03:41;;;;;;;5.90;1.90;;;;;;;19.78;61.27;99966.19;5074679;28;20048;-73
2022/06/02 03:06:21;;;;;;;6.97;1.90;;;;;;;19.73;61.20;99966.47;5081355;28;20086;-72
2022/06/02 03:09:10;;;;;;;4.63;1.27;;;;;;;19.64;61.30;99955.25;5075202;28;20141;-71
2022/06/02 03:12:01;;;;;;;4.70;1.40;;;;;;;19.52;62.15;99953.25;5076792;28;20131;-73
2022/06/02 03:14:51;;;;;;;9.00;2.40;;;;;;;19.56;61.95;99951.34;5086781;28;20241;-71
2022/06/02 03:17:42;;;;;;;3.63;1.55;;;;;;;19.49;62.05;99956.78;5051759;28;20071;-71
2022/06/02 03:20:19;;;;;;;7.35;1.88;;;;;;;19.40;62.12;99939.06;5072819;28;20487;-70
2022/06/02 03:23:01;;;;;;;4.53;1.80;;;;;;;19.36;62.28;99936.13;5078587;28;20078;-70
2022/06/02 03:25:49;;;;;;;11.00;2.67;;;;;;;19.24;62.37;99933.28;5073716;28;20080;-72
2022/06/02 03:28:34;;;;;;;2.70;1.20;;;;;;;19.24;62.93;99950.28;5078012;28;20131;-75
2022/06/02 03:31:24;;;;;;;6.22;1.45;;;;;;;19.26;62.89;99927.28;5084403;28;20044;-71
2022/06/02 03:34:02;;;;;;;;;;;;;;;19.43;62.97;99944.03;5079117;28;20052;-71
2022/06/02 03:36:51;;;;;;;7.63;1.80;;;;;;;19.56;62.36;99942.84;5082758;28;20010;-70
2022/06/02 03:39:25;;;;;;;4.03;1.60;;;;;;;19.72;62.30;99950.63;5075736;28;20087;-72
2022/06/02 03:42:03;;;;;;;5.38;1.60;;;;;;;19.72;62.02;99948.63;5072965;28;20494;-72
2022/06/02 03:44:48;;;;;;;9.50;2.78;;;;;;;19.97;62.50;99943.72;5088057;28;20052;-72
2022/06/02 03:47:27;;;;;;;8.30;1.50;;;;;;;20.12;61.66;99940.13;5089687;28;20139;-72
2022/06/02 03:50:26;;;;;;;6.18;1.52;;;;;;;19.91;61.76;99948.00;5089594;28;20130;-72
2022/06/02 03:53:28;;;;;;;4.57;1.57;;;;;;;19.70;61.83;99930.34;5014687;28;20468;-71
2022/06/02 03:56:10;;;;;;;3.85;1.85;;;;;;;19.63;62.21;99943.09;5081570;28;20328;-72
2022/06/02 03:58:58;;;;;;;5.97;1.38;;;;;;;19.40;62.52;99930.59;5074049;28;20135;-71
2022/06/02 04:01:29;;;;;;;6.78;1.77;;;;;;;19.22;62.46;99926.34;5082444;28;20146;-72
2022/06/02 04:04:05;;;;;;;6.43;1.80;;;;;;;19.56;62.85;99953.34;5090665;28;20056;-71
2022/06/02 04:06:52;;;;;;;3.33;1.48;;;;;;;19.55;62.68;99946.00;5092703;28;20574;-72
2022/06/02 04:09:35;;;;;;;9.60;2.20;;;;;;;19.28;62.71;99934.25;5084259;28;20136;-71
2022/06/02 04:15:33;;;;;;;4.38;2.13;;;;;;;19.28;63.11;99944.72;5076918;28;20076;-72
2022/06/02 04:18:24;;;;;;;3.85;1.85;;;;;;;19.09;63.54;99940.50;5081928;28;20138;-71
2022/06/02 04:21:04;;;;;;;7.35;1.45;;;;;;;18.95;63.85;99948.50;5096853;28;20048;-71
2022/06/02 04:23:34;;;;;;;;;;;;;;;18.90;64.07;99941.06;5085196;28;20074;-70
2022/06/02 04:26:22;;;;;;;9.20;3.10;;;;;;;18.86;64.28;99942.13;5092690;28;20010;-70
2022/06/02 04:29:18;;;;;;;7.53;1.73;;;;;;;18.79;64.77;99928.53;5083656;28;20052;-70
2022/06/02 04:32:01;;;;;;;5.43;1.70;;;;;;;18.61;64.17;99896.78;5072610;28;20127;-70
2022/06/02 04:35:00;;;;;;;5.47;1.43;;;;;;;18.66;64.34;99919.19;5091066;28;20136;-71
2022/06/02 04:37:45;;;;;;;4.13;1.85;;;;;;;18.74;64.57;99942.94;5079220;28;20083;-71
2022/06/02 04:40:26;;;;;;;7.00;1.73;;;;;;;18.73;64.78;99940.44;5085843;28;20131;-73
2022/06/02 04:43:11;;;;;;;3.83;1.42;;;;;;;18.73;64.49;99943.25;5093949;28;20101;-71
2022/06/02 04:45:58;;;;;;;1.85;1.38;;;;;;;18.66;64.69;99938.16;5091473;28;20055;-71
2022/06/02 04:48:32;;;;;;;2.95;1.25;;;;;;;18.71;65.25;99954.91;5096116;28;20135;-72
2022/06/02 04:51:11;;;;;;;4.45;2.13;;;;;;;18.88;64.96;99945.44;5086197;28;20046;-71
2022/06/02 04:54:04;;;;;;;5.57;2.30;;;;;;;18.97;64.39;99951.78;5087981;28;20131;-70
2022/06/02 04:56:58;;;;;;;7.68;1.77;;;;;;;19.06;63.98;99949.69;5078949;28;20419;-70
2022/06/02 04:59:30;;;;;;;2.70;1.20;;;;;;;19.05;63.71;99955.72;5080041;28;20577;-70
2022/06/02 05:02:00;;;;;;;3.08;1.58;;;;;;;19.16;64.09;99954.06;5089095;28;20068;-69
2022/06/02 05:04:47;;;;;;;4.82;1.80;;;;;;;19.54;63.88;99965.03;5095991;28;20048;-70
2022/06/02 05:07:52;;;;;;;2.33;1.38;;;;;;;20.00;63.31;99977.03;5075530;28;20053;-70
2022/06/02 05:10:40;;;;;;;4.00;1.75;;;;;;;19.79;63.27;99982.84;5087068;28;20048;-72
2022/06/02 05:13:30;;;;;;;6.72;2.28;;;;;;;19.16;63.68;99965.38;5085113;28;20501;-71
2022/06/02 05:16:11;;;;;;;5.78;2.28;;;;;;;18.69;64.68;99997.66;5075533;28;20476;-70
2022/06/02 05:18:41;;;;;;;4.03;1.83;;;;;;;18.34;66.11;100007.69;5076778;28;20048;-69
2022/06/02 05:21:14;;;;;;;5.00;1.88;;;;;;;18.13;66.74;99999.22;5078937;28;20510;-70
2022/06/02 05:24:06;;;;;;;4.97;1.95;;;;;;;18.02;67.27;100004.44;5076259;28;20102;-71
2022/06/02 05:26:57;;;;;;;9.00;1.67;;;;;;;18.04;67.78;100004.91;5091096;28;20044;-71
2022/06/02 05:29:27;;;;;;;5.32;1.95;;;;;;;18.21;68.37;99999.13;5075177;28;20139;-71
2022/06/02 05:32:00;;;;;;;6.82;1.60;;;;;;;18.44;68.43;100007.25;5076830;28;20050;-72
2022/06/02 05:34:51;;;;;;;4.18;1.60;;;;;;;18.89;67.94;100000.81;5077629;28;20056;-72
2022/06/02 05:37:44;;;;;;;5.45;1.40;;;;;;;18.98;67.95;100004.41;5090898;28;20087;-73
2022/06/02 05:40:30;;;;;;;7.03;1.95;;;;;;;18.46;69.75;100004.88;5080045;28;20090;-73
2022/06/02 05:43:18;;;;;;;21.30;11.93;;;;;;;18.29;71.42;100008.72;5077682;28;20080;-72
2022/06/02 05:45:57;;;;;;;10.65;4.45;;;;;;;18.56;72.21;100003.63;5082635;28;20139;-72
2022/06/02 05:48:49;;;;;;;14.18;4.82;;;;;;;18.49;72.59;99995.72;5088405;28;20056;-73
2022/06/02 05:51:40;;;;;;;3.92;2.65;;;;;;;18.84;72.30;100009.56;5079718;28;20238;-73
2022/06/02 05:54:29;;;;;;;4.97;2.35;;;;;;;18.73;72.76;100009.16;5079313;28;20074;-73
2022/06/02 05:57:29;;;;;;;11.43;4.43;;;;;;;18.66;72.94;100006.84;5083337;28;20122;-72
2022/06/02 06:00:22;;;;;;;7.38;2.38;;;;;;;19.08;72.12;100015.25;5089214;28;20483;-67
2022/06/02 06:03:06;;;;;;;5.50;2.65;;;;;;;18.96;72.10;100014.41;5077399;28;20550;-66
2022/06/02 06:05:42;;;;;;;2.85;1.35;;;;;;;18.70;71.47;100015.50;5077864;28;20135;-67
2022/06/02 06:08:15;;;;;;;6.07;1.88;;;;;;;18.29;71.81;100019.19;5086850;28;20566;-67
2022/06/02 06:11:16;;;;;;;3.20;2.20;;;;;;;17.76;72.35;100015.94;5084239;28;20071;-66
2022/06/02 06:13:46;;;;;;;1.45;1.35;;;;;;;17.53;73.01;100015.34;5081580;28;20100;-67
2022/06/02 06:16:22;;;;;;;;;;;;;;;17.45;73.65;100011.41;5086115;28;20551;-74
2022/06/02 06:19:34;;;;;;;5.85;1.33;;;;;;;17.69;73.58;100013.59;5084772;28;19926;-67
2022/06/02 06:22:23;;;;;;;8.77;2.47;;;;;;;17.42;73.82;100022.56;5085941;28;20036;-73
2022/06/02 06:24:59;;;;;;;2.55;1.33;;;;;;;17.16;74.52;100020.69;5079285;28;20076;-69
2022/06/02 06:27:48;;;;;;;6.07;5.55;;;;;;;17.00;75.38;100030.88;5081297;28;20135;-68
2022/06/02 06:30:33;;;;;;;4.80;1.77;;;;;;;17.03;76.19;100027.38;5076777;28;20090;-66
2022/06/02 06:33:22;;;;;;;2.40;1.70;;;;;;;17.15;76.33;100035.94;5079289;28;20391;-68
2022/06/02 06:36:02;;;;;;;10.18;2.65;;;;;;;17.29;77.09;100013.97;5085824;28;20131;-68
2022/06/02 06:38:47;;;;;;;6.95;1.80;;;;;;;17.36;76.91;100012.63;5079467;28;20072;-68
2022/06/02 06:41:32;;;;;;;3.55;2.20;;;;;;;17.04;77.16;100000.81;5077563;28;20143;-68
2022/06/02 06:44:08;;;;;;;14.68;2.42;;;;;;;17.02;77.36;100020.06;5077933;28;20083;-67
2022/06/02 06:47:01;;;;;;;8.02;1.77;;;;;;;16.96;77.77;100024.25;5075750;28;20057;-66
2022/06/02 06:49:42;;;;;;;4.75;2.08;;;;;;;17.17;77.73;100011.06;5087635;28;20140;-67
2022/06/02 06:52:30;;;;;;;3.28;2.03;;;;;;;17.24;77.76;100000.06;5073399;28;20044;-67
2022/06/02 06:55:19;;;;;;;5.88;2.08;;;;;;;17.53;77.39;100006.88;5078080;28;20134;-67
2022/06/02 06:58:01;;;;;;;5.28;2.10;;;;;;;17.79;76.83;100015.25;5075549;28;20087;-67
2022/06/02 07:01:12;;;;;;;6.95;2.38;;;;;;;17.87;76.38;100028.47;5088325;28;20080;-68
2022/06/02 07:04:20;;;;;;;6.68;6.22;;;;;;;17.76;76.14;100027.22;5090802;28;20040;-67
2022/06/02 07:07:08;;;;;;;7.10;4.75;;;;;;;17.81;76.60;100037.47;5071233;28;20264;-68
2022/06/02 07:09:41;;;;;;;5.82;2.33;;;;;;;18.03;76.07;100042.81;5073368;28;20067;-66
2022/06/02 07:12:52;;;;;;;3.90;2.17;;;;;;;18.00;76.10;100026.56;5072795;28;20135;-67
2022/06/02 07:15:27;;;;;;;5.82;2.35;;;;;;;18.04;75.97;100041.66;5073690;28;20139;-67
2022/06/02 07:18:18;;;;;;;5.57;1.52;;;;;;;18.17;76.00;100032.06;5072884;28;20143;-67
2022/06/02 07:20:54;;;;;;;10.15;2.55;;;;;;;18.17;75.66;100043.38;5072863;28;20091;-67
2022/06/02 07:23:38;;;;;;;4.93;3.08;;;;;;;18.08;75.65;100034.13;5072968;28;20074;-67
2022/06/02 07:26:26;;;;;;;7.80;2.70;;;;;;;18.20;75.88;100039.88;5081740;28;20098;-66
2022/06/02 07:29:17;;;;;;;6.32;2.47;;;;;;;18.18;75.79;100042.19;5082676;28;20083;-67
2022/06/02 07:31:50;;;;;;;9.35;2.85;;;;;;;18.22;75.97;100040.38;5091622;28;20045;-67
2022/06/02 07:34:44;;;;;;;5.57;2.45;;;;;;;18.22;75.97;100023.41;5079368;28;20048;-67
2022/06/02 07:37:35;;;;;;;5.93;2.83;;;;;;;18.41;75.61;100045.50;5086820;28;20135;-67
2022/06/02 07:40:21;;;;;;;6.20;2.83;;;;;;;18.47;76.04;100046.97;5077600;28;20094;-67
2022/06/02 07:43:14;;;;;;;14.23;3.28;;;;;;;18.46;75.82;100038.81;5087796;28;20578;-67
2022/06/02 07:46:11;;;;;;;4.90;2.35;;;;;;;18.46;75.68;100035.97;5083914;28;20478;-68
2022/06/02 07:48:38;;;;;;;9.75;3.28;;;;;;;18.69;76.01;100048.56;5081760;28;20051;-67
2022/06/02 07:51:42;;;;;;;9.40;2.53;;;;;;;18.87;75.72;100039.94;5076463;28;20112;-68
2022/06/02 07:54:48;;;;;;;10.88;3.63;;;;;;;18.96;75.78;100054.03;5084204;28;20131;-68
2022/06/02 07:57:33;;;;;;;6.97;3.25;;;;;;;18.90;75.54;100036.44;5085371;28;20612;-68
2022/06/02 08:00:13;;;;;;;14.02;3.38;;;;;;;18.75;75.69;100060.56;5064829;28;20063;-68
2022/06/02 08:03:08;;;;;;;8.57;3.35;;;;;;;18.57;75.69;100042.88;5081471;28;20079;-68
2022/06/02 08:05:53;;;;;;;9.18;3.03;;;;;;;18.68;75.50;100065.91;5085820;28;20094;-68
2022/06/02 08:08:40;;;;;;;12.48;3.53;;;;;;;18.49;75.83;100032.47;5095083;28;20134;-67
2022/06/02 08:11:23;;;;;;;11.10;3.22;;;;;;;18.68;75.72;100072.38;5085955;28;20143;-68
2022/06/02 08:14:07;;;;;;;10.00;3.63;;;;;;;18.76;75.94;100053.72;5084875;28;20088;-68
2022/06/02 08:16:58;;;;;;;15.43;4.18;;;;;;;18.93;76.10;100055.53;5097143;28;20055;-69
2022/06/02 08:19:47;;;;;;;12.02;3.47;;;;;;;19.05;75.72;100047.09;5085185;28;20095;-68
2022/06/02 08:22:23;;;;;;;11.90;3.38;;;;;;;19.52;75.89;100057.16;5079813;28;20140;-70
2022/06/02 08:25:10;;;;;;;9.88;2.80;;;;;;;19.81;76.14;100053.31;5081220;28;20583;-68
2022/06/02 08:28:24;;;;;;;8.63;4.00;;;;;;;20.06;75.45;100057.78;5097511;28;20172;-68
2022/06/02 08:31:17;;;;;;;6.22;3.47;;;;;;;20.44;75.43;100039.47;5023523;28;20122;-68
2022/06/02 08:34:03;;;;;;;9.55;2.63;;;;;;;20.77;74.81;100067.66;5009285;28;20552;-68
2022/06/02 08:36:39;;;;;;;5.65;2.22;;;;;;;20.67;74.22;100050.31;5074052;28;20083;-68
2022/06/02 08:39:30;;;;;;;3.42;1.63;;;;;;;20.88;73.44;100062.28;5074912;28;20100;-68
2022/06/02 08:42:19;;;;;;;7.57;3.10;;;;;;;20.84;74.01;100061.34;5087874;28;20475;-68
2022/06/02 08:45:00;;;;;;;9.35;2.85;;;;;;;21.25;73.25;100056.41;5083669;28;20080;-68
2022/06/02 08:47:39;;;;;;;12.48;2.40;;;;;;;21.70;73.21;100063.66;5093548;28;20040;-68
2022/06/02 08:50:45;;;;;;;7.28;2.28;;;;;;;21.99;72.61;100060.34;5092589;28;20528;-67
2022/06/02 08:53:48;;;;;;;3.20;2.08;;;;;;;22.08;71.96;100053.63;5080999;28;20052;-68
2022/06/02 08:56:45;;;;;;;6.32;2.63;;;;;;;22.49;72.27;100060.66;5079442;28;20134;-69
2022/06/02 08:59:34;;;;;;;6.88;2.80;;;;;;;22.53;69.43;100055.06;5082014;28;20052;-68
2022/06/02 09:02:29;;;;;;;3.20;1.55;;;;;;;22.62;68.51;100058.50;5079970;28;20495;-68
2022/06/02 09:05:32;;;;;;;4.75;1.60;;;;;;;22.59;68.58;100064.94;5091570;28;20056;-68
2022/06/02 09:08:33;;;;;;;6.13;1.33;;;;;;;22.33;68.52;100060.75;5088077;28;20127;-68
2022/06/02 09:11:18;;;;;;;4.75;1.95;;;;;;;21.99;69.19;100051.81;5086464;28;20048;-68
2022/06/02 09:13:53;;;;;;;2.78;1.48;;;;;;;21.75;70.06;100066.25;5080793;28;20079;-69
2022/06/02 09:16:27;;;;;;;6.45;1.17;;;;;;;21.59;69.29;100051.22;5085790;28;20086;-68
2022/06/02 09:19:25;;;;;;;4.90;1.45;;;;;;;21.64;69.20;100053.78;5094871;28;20139;-68
2022/06/02 09:22:01;;;;;;;4.75;1.75;;;;;;;21.92;68.05;100051.66;5086367;28;20083;-69
2022/06/02 09:24:41;;;;;;;2.40;1.45;;;;;;;22.17;68.87;100051.44;5088434;28;20075;-68
2022/06/02 09:27:23;;;;;;;7.20;2.38;;;;;;;22.23;67.87;100064.16;5087908;28;20131;-72
2022/06/02 09:30:00;;;;;;;2.78;1.05;;;;;;;22.40;66.28;100046.69;5088374;28;20076;-72
2022/06/02 09:32:35;;;;;;;6.50;2.03;;;;;;;22.68;67.02;100039.94;5089751;28;20142;-72
2022/06/02 09:35:22;;;;;;;2.05;1.52;;;;;;;23.07;64.87;100057.00;5102198;28;20431;-72
2022/06/02 09:38:23;;;;;;;6.60;3.97;;;;;;;22.98;62.25;100056.44;5083097;28;20447;-72
2022/06/02 09:41:14;;;;;;;7.20;4.72;;;;;;;23.17;63.18;100059.22;5096365;28;20136;-72
2022/06/02 09:43:41;;;;;;;11.10;9.77;;;;;;;23.54;63.11;100082.31;5077549;28;20041;-72
2022/06/02 09:46:44;;;;;;;6.60;6.07;;;;;;;23.84;62.35;100062.50;5081971;28;20554;-72
2022/06/02 09:49:51;;;;;;;8.07;4.30;;;;;;;24.28;64.47;100069.69;5059671;28;20051;-72
2022/06/02 09:52:32;;;;;;;5.38;3.47;;;;;;;24.88;63.79;100071.72;5090054;28;20099;-72
2022/06/02 09:55:18;;;;;;;4.30;3.90;;;;;;;25.26;62.53;100079.97;5095081;28;20131;-72
2022/06/02 09:57:57;;;;;;;8.18;3.85;;;;;;;25.51;62.13;100083.06;5089467;28;20478;-72
2022/06/02 10:00:40;;;;;;;5.22;4.82;;;;;;;25.60;58.33;100065.56;5087283;28;20323;-72
2022/06/02 10:03:28;;;;;;;3.45;1.20;;;;;;;25.21;60.19;100070.91;5078064;28;20546;-72
2022/06/02 10:06:20;;;;;;;9.13;2.17;;;;;;;24.96;60.81;100073.47;5086118;28;20052;-72
2022/06/02 10:09:15;;;;;;;5.75;2.17;;;;;;;24.75;61.65;100060.56;5085066;28;20150;-72
2022/06/02 10:11:48;;;;;;;8.35;1.90;;;;;;;25.29;62.39;100072.63;5079815;28;20080;-73
2022/06/02 10:14:42;;;;;;;5.68;1.55;;;;;;;25.35;61.39;100073.09;5087573;28;20139;-72
2022/06/02 10:17:34;;;;;;;7.10;1.77;;;;;;;24.96;59.90;100082.03;5081856;28;20495;-72
2022/06/02 10:20:23;;;;;;;6.85;1.40;;;;;;;24.89;60.19;100084.78;5088807;28;20083;-73
2022/06/02 10:23:28;;;;;;;5.20;1.45;;;;;;;24.38;61.55;100079.63;5099734;27;20108;-72
2022/06/02 10:25:57;;;;;;;11.48;2.10;;;;;;;24.23;61.94;100087.13;5083846;28;20069;-72
2022/06/02 10:28:47;;;;;;;7.18;1.73;;;;;;;24.20;63.44;100083.00;5080059;28;20151;-72
2022/06/02 10:31:16;;;;;;;9.55;1.92;;;;;;;24.07;63.94;100104.44;5071882;28;20459;-72
2022/06/02 10:34:17;;;;;;;6.63;1.80;;;;;;;23.81;64.78;100094.63;5084672;28;20080;-72
2022/06/02 10:37:02;;;;;;;7.40;2.60;;;;;;;23.79;64.40;100097.00;5087703;28;20135;-72
2022/06/02 10:39:46;;;;;;;5.20;2.10;;;;;;;23.69;64.43;100089.09;5095070;28;20142;-72
2022/06/02 10:42:51;;;;;;;8.18;2.17;;;;;;;23.47;65.05;100101.31;5077119;28;20106;-73
2022/06/02 10:45:53;;;;;;;8.50;2.72;;;;;;;23.27;65.91;100081.41;5081526;28;20075;-72
2022/06/02 10:49:06;;;;;;;8.77;2.30;;;;;;;23.28;66.60;100105.00;5083625;28;20114;-72
2022/06/02 10:52:10;;;;;;;12.15;2.83;;;;;;;23.30;66.62;100105.47;5075791;28;20462;-72
2022/06/02 10:54:50;;;;;;;9.32;2.45;;;;;;;23.63;65.03;100099.16;5082982;28;20071;-72
2022/06/02 10:57:25;;;;;;;;;;;;;;;24.19;66.05;100107.03;5090078;28;20148;-72
2022/06/02 11:00:17;;;;;;;6.40;1.98;;;;;;;24.86;63.54;100117.00;5082781;28;19924;-72
2022/06/02 11:03:18;;;;;;;5.80;1.83;;;;;;;25.06;62.44;100116.44;5087576;28;20085;-72
2022/06/02 11:06:13;;;;;;;9.95;1.75;;;;;;;25.33;62.69;100113.50;5092213;28;20101;-73
2022/06/02 11:09:15;;;;;;;8.95;1.85;;;;;;;25.77;62.59;100113.53;5085382;28;20056;-73
2022/06/02 11:11:48;;;;;;;4.57;2.08;;;;;;;25.57;61.69;100120.69;5085044;28;20044;-73
2022/06/02 11:14:40;;;;;;;4.13;1.77;;;;;;;25.47;61.35;100112.81;5078297;28;20578;-73
2022/06/02 11:17:44;;;;;;;7.85;3.67;;;;;;;25.00;61.30;100120.03;5099343;28;20076;-71
2022/06/02 11:20:34;;;;;;;11.55;3.20;;;;;;;24.67;60.58;100106.53;5086041;28;20079;-72
2022/06/02 11:23:21;;;;;;;7.43;1.42;;;;;;;24.33;59.86;100115.81;5082032;28;20044;-73
2022/06/02 11:26:10;;;;;;;3.15;1.58;;;;;;;24.18;58.92;100113.97;5079309;28;20144;-72
2022/06/02 11:29:12;;;;;;;6.40;2.90;;;;;;;24.04;58.78;100106.00;5077364;28;20113;-72
2022/06/02 11:32:11;;;;;;;8.02;2.38;;;;;;;24.00;58.02;100107.13;5087408;28;20071;-73
2022/06/02 11:34:37;;;;;;;6.22;1.52;;;;;;;24.40;57.92;100117.13;5085186;28;20036;-73
2022/06/02 11:37:53;;;;;;;12.32;3.20;;;;;;;24.73;57.27;100102.97;5084373;28;20079;-73
2022/06/02 11:41:03;;;;;;;3.33;1.30;;;;;;;25.37;56.23;100102.09;5085652;28;20075;-73
2022/06/02 11:44:02;;;;;;;8.35;1.98;;;;;;;25.69;56.18;100093.84;5084983;28;20098;-73
2022/06/02 11:46:57;;;;;;;8.67;2.20;;;;;;;25.80;55.18;100088.25;5083631;28;20512;-73
2022/06/02 11:49:48;;;;;;;5.45;1.50;;;;;;;26.27;54.27;100087.41;5087651;28;20734;-72
2022/06/02 11:52:43;;;;;;;5.78;2.17;;;;;;;26.06;53.50;100088.06;5085753;28;20080;-72
2022/06/02 11:55:16;;;;;;;9.05;1.83;;;;;;;26.46;53.07;100101.44;5079623;28;20048;-74
2022/06/02 11:57:49;;;;;;;4.72;1.88;;;;;;;27.00;52.26;100084.50;5079404;28;20087;-73
2022/06/02 12:00:58;;;;;;;7.88;1.75;;;;;;;27.38;51.34;100068.69;5078731;28;20179;-74
2022/06/02 12:03:34;;;;;;;7.43;2.28;;;;;;;27.72;49.79;100076.09;5079667;28;20498;-74
2022/06/02 12:06:03;;;;;;;6.18;2.10;;;;;;;28.35;48.34;100074.44;5081684;28;20052;-73
2022/06/02 12:09:08;;;;;;;5.22;1.77;;;;;;;29.10;47.25;100082.84;5081259;28;20140;-74
2022/06/02 12:11:44;;;;;;;7.72;1.90;;;;;;;29.88;44.40;100083.56;5077392;28;20039;-74
2022/06/02 12:14:31;;;;;;;5.70;1.92;;;;;;;30.42;43.32;100073.19;5074490;28;20131;-74
2022/06/02 12:17:10;;;;;;;9.25;2.08;;;;;;;31.20;40.79;100093.69;5078966;28;20522;-74
2022/06/02 12:20:07;;;;;;;7.18;1.83;;;;;;;31.62;39.53;100071.25;5080616;28;20414;-73
2022/06/02 12:23:04;;;;;;;3.83;1.40;;;;;;;32.22;38.38;100086.75;5089101;28;20055;-73
2022/06/02 12:25:54;;;;;;;7.15;2.03;;;;;;;32.35;36.04;100071.69;5085295;28;20105;-73
2022/06/02 12:28:43;;;;;;;4.65;1.40;;;;;;;32.38;35.17;100073.66;5091165;28;20051;-73
2022/06/02 12:31:12;;;;;;;6.47;1.63;;;;;;;31.83;35.27;100082.47;5084578;28;20075;-73
2022/06/02 12:34:02;;;;;;;3.05;1.17;;;;;;;30.62;36.69;100084.91;5078288;28;20423;-74
2022/06/02 12:36:43;;;;;;;6.43;1.35;;;;;;;28.66;39.38;100092.03;5084866;28;20139;-75
2022/06/02 12:39:41;;;;;;;5.43;1.70;;;;;;;27.71;40.43;100085.94;5089739;28;20052;-74
2022/06/02 12:42:28;;;;;;;6.18;1.75;;;;;;;27.50;40.90;100084.69;5082466;28;20673;-78
2022/06/02 12:45:23;;;;;;;8.00;1.75;;;;;;;27.11;41.98;100084.53;5080736;28;20076;-77
2022/06/02 12:48:21;;;;;;;6.43;1.90;;;;;;;28.36;39.94;100076.06;5079234;28;20088;-74
2022/06/02 12:51:09;;;;;;;6.72;1.80;;;;;;;30.17;36.89;100095.66;5077636;28;20142;-77
2022/06/02 12:53:36;;;;;;;8.63;1.60;;;;;;;31.06;34.83;100091.00;5088380;28;20103;-78
2022/06/02 12:56:47;;;;;;;2.88;1.20;;;;;;;30.01;35.53;100083.88;5083300;28;20040;-82
2022/06/02 12:59:39;;;;;;;3.50;1.15;;;;;;;27.97;38.42;100082.69;5047553;28;20077;-74
2022/06/02 13:02:17;;;;;;;4.20;1.52;;;;;;;26.77;39.91;100087.72;5042932;28;20080;-78
2022/06/02 13:05:08;;;;;;;6.90;1.20;;;;;;;26.16;40.62;100087.31;5072492;28;20101;-74
2022/06/02 13:08:12;;;;;;;3.17;1.50;;;;;;;25.70;41.92;100087.72;5092495;28;20122;-77